CH-0004 weather

Altiport du Glacier de Tsanfleuron
Switzerland

Public forecast

Using degrees Celsius for public forecast. Weather courtesy of forecast.io.

METAR (pilot weather report)

Closest report is Sion Airport, 7.2 nm (13.4 km) SSE. Retrieved 2019/07/21 06:20 UTC (11 minutes ago):

LSGS 210620Z 10003KT 060V130 9999 SCT120 20/17 Q1023

TAF (pilot weather forecast)

Forecast is more than 12 hours old.

Closest forecast is Payerne Air Base, 34.0 nm (63.0 km) NNW. Retrieved 2019/07/20 17:00 UTC (14 hours ago):

TAF LSMP 201625Z 2017/2123 22009KT CAVOK BECMG 2017/2019 9999 FEW060 SCT100